createdAt,value
2022-11-22T00:00:48.850Z,15.40
2022-11-22T00:03:35.860Z,15.50
2022-11-22T00:06:22.906Z,15.80
2022-11-22T00:09:09.921Z,15.53
2022-11-22T00:11:57.176Z,15.43
2022-11-22T00:14:44.212Z,15.20
2022-11-22T00:17:34.818Z,15.40
2022-11-22T00:20:21.941Z,13.57
2022-11-22T00:23:08.936Z,14.30
2022-11-22T00:25:55.932Z,13.60
2022-11-22T00:28:42.977Z,13.57
2022-11-22T00:31:29.999Z,15.00
2022-11-22T00:34:16.961Z,13.47
2022-11-22T00:37:03.992Z,14.37
2022-11-22T00:39:50.937Z,14.77
2022-11-22T00:42:37.908Z,14.77
2022-11-22T00:45:24.843Z,13.67
2022-11-22T00:48:11.905Z,15.17
2022-11-22T00:50:59.165Z,15.20
2022-11-22T00:53:46.232Z,15.40
2022-11-22T00:56:33.368Z,16.13
2022-11-22T00:59:20.335Z,14.90
2022-11-22T01:02:07.277Z,14.13
2022-11-22T01:04:54.219Z,16.00
2022-11-22T01:07:41.355Z,15.20
2022-11-22T01:10:28.405Z,14.57
2022-11-22T01:13:15.491Z,14.17
2022-11-22T01:16:05.886Z,15.57
2022-11-22T01:18:52.832Z,14.93
2022-11-22T01:21:40.276Z,15.77
2022-11-22T01:24:27.260Z,14.80
2022-11-22T01:27:14.235Z,15.00
2022-11-22T01:30:01.247Z,15.57
2022-11-22T01:32:48.195Z,15.10
2022-11-22T01:35:35.422Z,16.30
2022-11-22T01:38:22.371Z,16.03
2022-11-22T01:41:09.404Z,17.70
2022-11-22T01:43:56.354Z,15.60
2022-11-22T01:46:43.451Z,16.33
2022-11-22T01:49:47.110Z,17.60
2022-11-22T01:52:34.961Z,15.70
2022-11-22T01:55:22.564Z,16.07
2022-11-22T01:58:10.813Z,16.77
2022-11-22T02:00:57.994Z,17.50
2022-11-22T02:03:48.199Z,16.20
2022-11-22T02:06:51.615Z,18.87
2022-11-22T02:09:40.891Z,18.43
2022-11-22T02:12:30.156Z,17.13
2022-11-22T02:15:17.125Z,18.33
2022-11-22T02:18:04.131Z,17.10
2022-11-22T02:20:51.108Z,17.23
2022-11-22T02:23:50.872Z,17.13
2022-11-22T02:26:38.112Z,17.30
2022-11-22T02:29:25.122Z,17.73
2022-11-22T02:32:12.191Z,17.10
2022-11-22T02:34:59.227Z,19.17
2022-11-22T02:37:47.502Z,17.70
2022-11-22T02:40:44.549Z,17.60
2022-11-22T02:43:40.382Z,18.70
2022-11-22T02:46:27.351Z,19.00
2022-11-22T02:49:17.067Z,20.23
2022-11-22T02:52:04.148Z,20.03
2022-11-22T02:54:51.125Z,20.13
2022-11-22T02:57:38.145Z,19.07
2022-11-22T03:00:25.198Z,19.40
2022-11-22T03:03:12.124Z,19.13
2022-11-22T03:05:59.141Z,19.87
2022-11-22T03:08:53.206Z,19.13
2022-11-22T03:11:43.607Z,19.83
2022-11-22T03:14:30.603Z,18.17
2022-11-22T03:17:17.753Z,19.43
2022-11-22T03:20:05.504Z,18.90
2022-11-22T03:22:52.721Z,18.40
2022-11-22T03:25:40.512Z,18.70
2022-11-22T03:28:27.514Z,18.23
2022-11-22T03:31:14.517Z,16.90
2022-11-22T03:34:01.472Z,16.10
2022-11-22T03:36:48.655Z,16.20
2022-11-22T03:39:35.627Z,17.50
2022-11-22T03:42:22.557Z,16.67
2022-11-22T03:45:09.924Z,17.00
2022-11-22T03:47:57.552Z,16.37
2022-11-22T03:50:45.187Z,16.30
2022-11-22T03:53:32.997Z,16.27
2022-11-22T03:56:19.955Z,16.47
2022-11-22T03:59:06.972Z,18.40
2022-11-22T04:01:54.042Z,16.33
2022-11-22T04:04:40.964Z,15.40
2022-11-22T04:07:28.069Z,15.90
2022-11-22T04:10:17.761Z,16.60
2022-11-22T04:13:08.475Z,17.03
2022-11-22T04:15:55.788Z,16.20
2022-11-22T04:18:42.801Z,16.37
2022-11-22T04:21:35.737Z,15.10
2022-11-22T04:24:41.147Z,15.87
2022-11-22T04:27:28.086Z,17.03
2022-11-22T04:30:20.258Z,16.57
2022-11-22T04:33:07.813Z,15.70
2022-11-22T04:35:55.095Z,15.70
2022-11-22T04:38:42.018Z,15.93
2022-11-22T04:41:28.975Z,16.63
2022-11-22T04:44:34.373Z,16.83
2022-11-22T04:47:39.705Z,16.37
2022-11-22T04:50:50.365Z,17.90
2022-11-22T04:53:37.629Z,15.93
2022-11-22T04:56:24.623Z,17.33
2022-11-22T04:59:11.649Z,17.13
2022-11-22T05:01:58.591Z,18.10
2022-11-22T05:04:50.479Z,17.80
2022-11-22T05:07:38.054Z,17.07
2022-11-22T05:10:27.126Z,17.60
2022-11-22T05:13:14.314Z,18.70
2022-11-22T05:16:03.264Z,18.60
2022-11-22T05:18:59.351Z,17.97
2022-11-22T05:21:46.630Z,18.00
2022-11-22T05:24:33.579Z,15.67
2022-11-22T05:27:20.548Z,17.37
2022-11-22T05:30:07.875Z,17.07
2022-11-22T05:32:55.221Z,16.13
2022-11-22T05:35:42.227Z,15.83
2022-11-22T05:38:29.197Z,14.60
2022-11-22T05:41:17.581Z,14.60
2022-11-22T05:44:04.698Z,14.93
2022-11-22T05:46:51.676Z,13.37
2022-11-22T05:49:38.723Z,13.90
2022-11-22T05:52:25.740Z,14.97
2022-11-22T05:55:12.758Z,15.43
2022-11-22T05:58:01.424Z,14.47
2022-11-22T06:00:48.481Z,15.13
2022-11-22T06:03:36.476Z,14.70
2022-11-22T06:06:23.542Z,14.47
2022-11-22T06:09:10.504Z,14.13
2022-11-22T06:11:57.528Z,15.23
2022-11-22T06:14:46.012Z,13.77
2022-11-22T06:17:33.040Z,14.27
2022-11-22T06:20:20.101Z,16.73
2022-11-22T06:23:07.125Z,15.73
2022-11-22T06:26:02.725Z,18.37
2022-11-22T06:28:49.969Z,18.27
2022-11-22T06:31:37.319Z,16.93
2022-11-22T06:34:24.609Z,17.40
2022-11-22T06:37:15.644Z,17.07
2022-11-22T06:40:03.300Z,17.13
2022-11-22T06:42:51.871Z,16.53
2022-11-22T06:45:38.873Z,16.77
2022-11-22T06:48:26.836Z,17.40
2022-11-22T06:51:18.122Z,17.20
2022-11-22T06:54:05.205Z,18.87
2022-11-22T06:56:52.152Z,20.10
2022-11-22T06:59:39.165Z,19.27
2022-11-22T07:02:26.181Z,20.27
2022-11-22T07:05:28.579Z,18.30
2022-11-22T07:08:15.630Z,17.00
2022-11-22T07:11:07.822Z,16.93
2022-11-22T07:13:59.217Z,17.20
2022-11-22T07:16:50.570Z,16.53
2022-11-22T07:19:37.696Z,14.30
2022-11-22T07:22:24.733Z,15.50
2022-11-22T07:25:11.693Z,14.33
2022-11-22T07:27:58.637Z,14.33
2022-11-22T07:30:45.668Z,14.70
2022-11-22T07:33:34.387Z,13.77
2022-11-22T07:36:22.429Z,13.97
2022-11-22T07:39:09.489Z,14.07
2022-11-22T07:41:56.500Z,15.23
2022-11-22T07:44:43.568Z,13.70
2022-11-22T07:47:30.717Z,13.70
2022-11-22T07:50:17.732Z,13.13
2022-11-22T07:53:04.872Z,12.77
2022-11-22T07:55:51.925Z,13.83
2022-11-22T07:58:39.384Z,12.73
2022-11-22T08:01:26.509Z,12.70
2022-11-22T08:04:13.794Z,11.97
2022-11-22T08:07:00.900Z,13.20
2022-11-22T08:09:47.875Z,13.03
2022-11-22T08:12:34.881Z,12.33
2022-11-22T08:15:21.929Z,13.67
2022-11-22T08:18:09.203Z,12.37
2022-11-22T08:21:08.174Z,12.13
2022-11-22T08:23:59.095Z,10.87
2022-11-22T08:26:46.158Z,11.10
2022-11-22T08:29:33.259Z,11.33
2022-11-22T08:32:20.328Z,10.37
2022-11-22T08:35:07.628Z,11.40
2022-11-22T08:37:56.833Z,11.07
2022-11-22T08:40:43.902Z,11.60
2022-11-22T08:43:31.416Z,10.27
2022-11-22T08:46:19.413Z,10.57
2022-11-22T08:49:06.568Z,9.87
2022-11-22T08:51:53.865Z,8.90
2022-11-22T08:54:41.197Z,8.87
2022-11-22T08:57:28.227Z,8.33
2022-11-22T09:00:15.921Z,8.50
2022-11-22T09:03:02.974Z,7.80
2022-11-22T09:09:15.224Z,7.50
2022-11-22T09:12:04.363Z,7.77
2022-11-22T09:14:51.606Z,7.60
2022-11-22T09:17:38.978Z,7.60
2022-11-22T09:20:25.996Z,6.63
2022-11-22T09:23:12.963Z,6.60
2022-11-22T09:26:14.461Z,6.30
2022-11-22T09:29:01.415Z,5.47
2022-11-22T09:31:48.737Z,6.07
2022-11-22T09:34:35.705Z,6.33
2022-11-22T09:37:22.686Z,5.03
2022-11-22T09:40:10.266Z,5.50
2022-11-22T09:43:07.865Z,5.53
2022-11-22T09:46:22.557Z,4.90
2022-11-22T09:49:44.028Z,4.87
2022-11-22T09:52:40.133Z,4.30
2022-11-22T09:55:34.961Z,5.13
2022-11-22T09:58:34.029Z,4.70
2022-11-22T10:01:47.243Z,4.87
2022-11-22T10:04:39.333Z,4.97
2022-11-22T10:07:36.496Z,4.13
2022-11-22T10:10:32.548Z,4.03
2022-11-22T10:13:41.239Z,3.60
2022-11-22T10:16:35.137Z,3.73
2022-11-22T10:19:41.413Z,3.80
2022-11-22T10:22:30.504Z,3.83
2022-11-22T10:25:30.676Z,3.63
2022-11-22T10:28:19.139Z,3.70
2022-11-22T10:31:15.128Z,3.27
2022-11-22T10:34:23.468Z,3.10
2022-11-22T10:37:22.709Z,3.50
2022-11-22T10:40:15.502Z,3.60
2022-11-22T10:43:20.676Z,3.73
2022-11-22T10:46:25.752Z,3.80
2022-11-22T10:49:35.770Z,3.37
2022-11-22T10:52:37.748Z,3.47
2022-11-22T10:55:45.680Z,3.27
2022-11-22T10:58:41.363Z,3.90
2022-11-22T11:01:31.280Z,3.40
2022-11-22T11:04:20.396Z,3.53
2022-11-22T11:07:14.892Z,3.60
2022-11-22T11:10:26.276Z,3.70
2022-11-22T11:13:26.858Z,3.27
2022-11-22T11:16:20.926Z,3.50
2022-11-22T11:19:10.976Z,4.83
2022-11-22T11:22:11.398Z,3.43
2022-11-22T11:25:27.042Z,4.07
2022-11-22T11:28:20.512Z,3.97
2022-11-22T11:31:08.702Z,3.93
2022-11-22T11:34:20.668Z,3.87
2022-11-22T11:37:19.264Z,4.53
2022-11-22T11:40:25.452Z,3.73
2022-11-22T11:43:24.296Z,3.80
2022-11-22T11:46:20.083Z,3.47
2022-11-22T11:49:27.359Z,3.67
2022-11-22T11:52:22.181Z,3.80
2022-11-22T11:55:17.246Z,3.67
2022-11-22T11:58:17.635Z,3.47
2022-11-22T12:01:11.454Z,3.20
2022-11-22T12:04:02.897Z,3.23
2022-11-22T12:07:04.883Z,3.07
2022-11-22T12:09:53.973Z,2.87
2022-11-22T12:12:49.391Z,3.60
2022-11-22T12:15:58.092Z,3.53
2022-11-22T12:19:04.876Z,2.80
2022-11-22T12:22:02.733Z,3.10
2022-11-22T12:25:31.574Z,3.43
2022-11-22T12:28:21.344Z,3.10
2022-11-22T12:31:28.425Z,2.57
2022-11-22T12:34:37.067Z,2.70
2022-11-22T12:37:39.429Z,2.47
2022-11-22T12:40:42.622Z,2.57
2022-11-22T12:43:57.024Z,2.53
2022-11-22T12:46:50.332Z,2.87
2022-11-22T12:49:56.344Z,2.60
2022-11-22T12:52:59.729Z,2.97
2022-11-22T12:55:53.153Z,2.40
2022-11-22T12:59:01.017Z,2.40
2022-11-22T13:01:52.692Z,2.73
2022-11-22T13:04:58.633Z,2.93
2022-11-22T13:07:54.060Z,2.37
2022-11-22T13:10:48.541Z,2.53
2022-11-22T13:13:43.857Z,2.77
2022-11-22T13:16:33.994Z,2.20
2022-11-22T13:19:25.955Z,2.90
2022-11-22T13:22:26.928Z,2.23
2022-11-22T13:25:34.086Z,2.57
2022-11-22T13:28:25.849Z,2.17
2022-11-22T13:31:12.791Z,2.50
2022-11-22T13:34:01.860Z,2.43
2022-11-22T13:36:50.215Z,2.20
2022-11-22T13:39:50.143Z,2.47
2022-11-22T13:42:37.140Z,2.13
2022-11-22T13:45:25.583Z,2.10
2022-11-22T13:48:12.667Z,2.53
2022-11-22T13:51:00.381Z,2.43
2022-11-22T13:53:49.295Z,2.50
2022-11-22T13:56:36.168Z,2.67
2022-11-22T13:59:23.233Z,2.40
2022-11-22T14:02:23.829Z,2.50
2022-11-22T14:05:40.965Z,2.30
2022-11-22T14:08:41.464Z,2.43
2022-11-22T14:11:48.648Z,2.40
2022-11-22T14:15:09.117Z,2.90
2022-11-22T14:18:14.801Z,2.80
2022-11-22T14:21:09.957Z,2.40
2022-11-22T14:24:28.911Z,2.83
2022-11-22T14:27:36.437Z,2.20
2022-11-22T14:30:52.050Z,2.90
2022-11-22T14:34:17.081Z,2.40
2022-11-22T14:37:13.103Z,2.37
2022-11-22T14:40:11.559Z,2.50
2022-11-22T14:43:39.559Z,2.70
2022-11-22T14:46:52.312Z,2.60
2022-11-22T14:49:46.982Z,2.17
2022-11-22T14:52:36.499Z,2.77
2022-11-22T14:55:32.078Z,2.40
2022-11-22T14:58:25.982Z,2.10
2022-11-22T15:01:37.553Z,3.07
2022-11-22T15:09:12.133Z,2.40
2022-11-22T15:09:13.692Z,2.20
2022-11-22T15:11:45.661Z,2.30
2022-11-22T15:14:58.097Z,2.60
2022-11-22T15:59:39.530Z,2.37
2022-11-22T16:02:33.204Z,2.73
2022-11-22T16:06:10.356Z,2.20
2022-11-22T16:08:48.598Z,2.43
2022-11-22T16:11:38.644Z,2.37
2022-11-22T16:14:42.384Z,2.60
2022-11-22T16:17:31.277Z,2.80
2022-11-22T16:20:32.241Z,2.67
2022-11-22T16:23:25.441Z,2.80
2022-11-22T16:26:25.037Z,2.80
2022-11-22T16:29:26.323Z,2.87
2022-11-22T16:32:15.169Z,2.93
2022-11-22T16:35:27.954Z,2.20
2022-11-22T16:38:10.845Z,2.20
2022-11-22T16:40:59.021Z,2.10
2022-11-22T16:43:49.339Z,2.23
2022-11-22T16:46:36.464Z,2.10
2022-11-22T16:49:23.591Z,2.80
2022-11-22T16:52:12.924Z,2.53
2022-11-22T16:55:00.352Z,2.63
2022-11-22T16:57:47.392Z,2.20
2022-11-22T17:00:37.292Z,2.10
2022-11-22T17:03:29.768Z,2.30
2022-11-22T17:06:24.982Z,2.43
2022-11-22T17:09:12.497Z,1.90
2022-11-22T17:11:59.617Z,2.20
2022-11-22T17:14:48.555Z,2.37
2022-11-22T17:17:36.259Z,1.87
2022-11-22T17:20:23.282Z,2.27
2022-11-22T17:23:15.778Z,2.10
2022-11-22T17:26:06.629Z,2.63
2022-11-22T17:28:54.048Z,2.17
2022-11-22T17:31:44.335Z,2.63
2022-11-22T17:34:31.780Z,2.60
2022-11-22T17:37:18.925Z,2.97
2022-11-22T17:40:06.820Z,2.60
2022-11-22T17:42:53.868Z,2.40
2022-11-22T17:45:44.337Z,2.53
2022-11-22T17:48:31.330Z,2.17
2022-11-22T17:51:18.890Z,2.17
2022-11-22T17:54:06.002Z,2.23
2022-11-22T17:56:53.057Z,2.47
2022-11-22T17:59:41.101Z,2.13
2022-11-22T18:02:28.092Z,1.97
2022-11-22T18:05:15.229Z,2.30
2022-11-22T18:08:02.310Z,2.50
2022-11-22T18:10:53.320Z,2.03
2022-11-22T18:13:40.931Z,2.40
2022-11-22T18:16:29.017Z,2.30
2022-11-22T18:19:16.070Z,2.33
2022-11-22T18:22:03.346Z,2.77
2022-11-22T18:24:50.419Z,2.17
2022-11-22T18:27:42.109Z,2.50
2022-11-22T18:30:29.655Z,2.80
2022-11-22T18:33:16.690Z,2.47
2022-11-22T18:36:06.894Z,2.60
2022-11-22T18:38:55.827Z,2.20
2022-11-22T18:41:43.716Z,2.10
2022-11-22T18:44:30.880Z,2.57
2022-11-22T18:47:18.060Z,2.50
2022-11-22T18:50:08.350Z,2.27
2022-11-22T18:52:59.052Z,2.60
2022-11-22T18:55:46.110Z,2.30
2022-11-22T18:58:34.897Z,2.27
2022-11-22T19:01:23.741Z,2.40
2022-11-22T19:04:14.347Z,2.30
2022-11-22T19:07:02.315Z,2.40
2022-11-22T19:09:50.208Z,2.43
2022-11-22T19:12:37.736Z,2.10
2022-11-22T19:15:26.936Z,3.50
2022-11-22T19:18:16.907Z,4.20
2022-11-22T19:21:06.543Z,2.90
2022-11-22T19:23:54.989Z,2.57
2022-11-22T19:26:42.542Z,2.73
2022-11-22T19:29:30.388Z,3.27
2022-11-22T19:32:18.042Z,3.23
2022-11-22T19:35:05.648Z,3.60
2022-11-22T19:37:53.343Z,3.50
2022-11-22T19:40:41.480Z,3.97
2022-11-22T19:43:28.628Z,2.00
2022-11-22T19:46:16.292Z,4.10
2022-11-22T19:49:03.592Z,3.30
2022-11-22T19:51:50.624Z,2.67
2022-11-22T19:54:38.615Z,4.30
2022-11-22T19:57:25.738Z,3.30
2022-11-22T20:00:13.335Z,3.20
2022-11-22T20:03:00.382Z,2.73
2022-11-22T20:05:47.435Z,2.23
2022-11-22T20:08:34.985Z,2.27
2022-11-22T20:11:22.067Z,2.50
2022-11-22T20:14:09.745Z,4.40
2022-11-22T20:16:56.845Z,3.37
2022-11-22T20:19:44.123Z,2.87
2022-11-22T20:22:31.558Z,3.63
2022-11-22T20:25:18.568Z,3.03
2022-11-22T20:28:05.713Z,2.60
2022-11-22T20:30:52.793Z,7.20
2022-11-22T20:33:42.291Z,5.73
2022-11-22T20:36:31.410Z,4.10
2022-11-22T20:42:34.014Z,8.30
2022-11-22T20:45:22.021Z,2.20
2022-11-22T20:48:09.289Z,2.50
2022-11-22T20:50:56.441Z,17.43
2022-11-22T20:53:43.899Z,4.60
2022-11-22T20:56:31.176Z,3.70
2022-11-22T20:59:18.209Z,5.87
2022-11-22T21:02:09.273Z,8.60
2022-11-22T21:04:56.470Z,36.43
2022-11-22T21:07:43.553Z,3.50
2022-11-22T21:10:30.989Z,3.77
2022-11-22T21:13:18.112Z,5.60
2022-11-22T21:16:22.869Z,5.07
2022-11-22T21:19:11.218Z,2.53
2022-11-22T21:21:59.172Z,2.07
2022-11-22T21:24:46.319Z,1.80
2022-11-22T21:27:33.627Z,2.23
2022-11-22T21:30:20.800Z,2.13
2022-11-22T21:33:07.905Z,2.07
2022-11-22T21:35:54.939Z,2.20
2022-11-22T21:38:42.117Z,2.13
2022-11-22T21:41:39.857Z,1.97
2022-11-22T21:44:28.703Z,2.27
2022-11-22T21:47:17.181Z,2.10
2022-11-22T21:50:10.071Z,2.00
2022-11-22T21:52:59.000Z,1.90
2022-11-22T21:55:54.352Z,2.17
2022-11-22T21:58:42.620Z,1.80
2022-11-22T22:01:30.818Z,1.80
2022-11-22T22:04:18.094Z,1.63
2022-11-22T22:07:15.341Z,1.90
2022-11-22T22:10:13.480Z,2.00
2022-11-22T22:13:01.217Z,1.87
2022-11-22T22:15:50.378Z,1.93
2022-11-22T22:18:39.256Z,2.10
2022-11-22T22:21:27.656Z,1.80
2022-11-22T22:24:14.925Z,2.10
2022-11-22T22:27:02.702Z,1.70
2022-11-22T22:29:49.733Z,1.60
2022-11-22T22:32:36.996Z,1.70
2022-11-22T22:35:24.168Z,1.87
2022-11-22T22:38:11.230Z,2.00
2022-11-22T22:41:00.570Z,2.20
2022-11-22T22:43:49.116Z,1.97
2022-11-22T22:46:36.206Z,1.90
2022-11-22T22:49:23.255Z,2.30
2022-11-22T22:52:10.414Z,2.10
2022-11-22T22:54:57.504Z,2.40
2022-11-22T22:57:44.526Z,2.40
2022-11-22T23:00:31.614Z,2.77
2022-11-22T23:03:18.697Z,2.07
2022-11-22T23:06:08.081Z,1.80
2022-11-22T23:08:55.632Z,1.87
2022-11-22T23:12:01.303Z,1.93
2022-11-22T23:14:48.236Z,2.00
2022-11-22T23:17:35.228Z,1.80
2022-11-22T23:20:22.316Z,1.80
2022-11-22T23:23:09.293Z,1.90
2022-11-22T23:26:00.681Z,2.23
2022-11-22T23:28:47.616Z,2.13
2022-11-22T23:31:34.666Z,2.20
2022-11-22T23:34:21.636Z,2.07
2022-11-22T23:37:08.549Z,2.20
2022-11-22T23:39:55.553Z,2.27
2022-11-22T23:42:42.465Z,2.07
2022-11-22T23:45:29.433Z,2.20
2022-11-22T23:48:16.365Z,2.27
2022-11-22T23:51:04.418Z,2.00
2022-11-22T23:53:59.048Z,2.13
2022-11-22T23:56:46.051Z,2.20
2022-11-22T23:59:33.292Z,2.43
